sensor_id;sensor_type;location;lat;lon;timestamp;pressure;altitude;pressure_sealevel;temperature;humidity
56912;BME280;42800;53.928;27.662;2023-05-09T00:02:07;99771.28;;;3.54;100.00
56912;BME280;42800;53.928;27.662;2023-05-09T00:04:33;99761.63;;;3.48;100.00
56912;BME280;42800;53.928;27.662;2023-05-09T00:06:59;99749.00;;;3.43;100.00
56912;BME280;42800;53.928;27.662;2023-05-09T00:09:25;99736.34;;;3.39;100.00
56912;BME280;42800;53.928;27.662;2023-05-09T00:11:51;99729.94;;;3.35;100.00
56912;BME280;42800;53.928;27.662;2023-05-09T00:14:18;99735.56;;;3.38;100.00
56912;BME280;42800;53.928;27.662;2023-05-09T00:16:44;99724.81;;;3.33;100.00
56912;BME280;42800;53.928;27.662;2023-05-09T00:19:10;99714.09;;;3.28;100.00
56912;BME280;42800;53.928;27.662;2023-05-09T00:21:37;99717.72;;;3.23;100.00
56912;BME280;42800;53.928;27.662;2023-05-09T00:24:03;99705.25;;;3.22;100.00
56912;BME280;42800;53.928;27.662;2023-05-09T00:26:29;99699.63;;;3.19;100.00
56912;BME280;42800;53.928;27.662;2023-05-09T00:28:55;99692.91;;;3.16;100.00
56912;BME280;42800;53.928;27.662;2023-05-09T00:31:22;99686.28;;;3.09;100.00
56912;BME280;42800;53.928;27.662;2023-05-09T00:33:48;99684.97;;;3.06;100.00
56912;BME280;42800;53.928;27.662;2023-05-09T00:36:14;99676.19;;;3.00;100.00
56912;BME280;42800;53.928;27.662;2023-05-09T00:38:40;99679.38;;;3.02;100.00
56912;BME280;42800;53.928;27.662;2023-05-09T00:41:06;99681.41;;;2.97;100.00
56912;BME280;42800;53.928;27.662;2023-05-09T00:43:32;99668.34;;;2.99;100.00
56912;BME280;42800;53.928;27.662;2023-05-09T00:45:58;99666.75;;;2.98;100.00
56912;BME280;42800;53.928;27.662;2023-05-09T00:48:25;99672.38;;;2.88;100.00
56912;BME280;42800;53.928;27.662;2023-05-09T00:50:51;99677.19;;;2.91;100.00
56912;BME280;42800;53.928;27.662;2023-05-09T00:53:17;99659.72;;;2.83;100.00
56912;BME280;42800;53.928;27.662;2023-05-09T00:55:43;99664.25;;;2.88;100.00
56912;BME280;42800;53.928;27.662;2023-05-09T00:58:09;99664.13;;;2.79;100.00
56912;BME280;42800;53.928;27.662;2023-05-09T01:00:35;99660.13;;;2.76;100.00
56912;BME280;42800;53.928;27.662;2023-05-09T01:03:01;99669.47;;;2.84;100.00
56912;BME280;42800;53.928;27.662;2023-05-09T01:05:33;99668.25;;;2.76;100.00
56912;BME280;42800;53.928;27.662;2023-05-09T01:08:07;99664.53;;;2.72;100.00
56912;BME280;42800;53.928;27.662;2023-05-09T01:10:45;99660.22;;;2.57;100.00
56912;BME280;42800;53.928;27.662;2023-05-09T01:13:17;99662.53;;;2.50;100.00
56912;BME280;42800;53.928;27.662;2023-05-09T01:15:53;99658.13;;;2.54;100.00
56912;BME280;42800;53.928;27.662;2023-05-09T01:18:26;99676.66;;;2.47;100.00
56912;BME280;42800;53.928;27.662;2023-05-09T01:21:00;99671.44;;;2.51;100.00
56912;BME280;42800;53.928;27.662;2023-05-09T01:23:49;99668.44;;;2.52;100.00
56912;BME280;42800;53.928;27.662;2023-05-09T01:26:23;99670.44;;;2.47;100.00
56912;BME280;42800;53.928;27.662;2023-05-09T01:29:13;99671.72;;;2.35;100.00
56912;BME280;42800;53.928;27.662;2023-05-09T01:31:43;99684.81;;;2.28;100.00
56912;BME280;42800;53.928;27.662;2023-05-09T01:34:10;99684.81;;;2.28;100.00
56912;BME280;42800;53.928;27.662;2023-05-09T01:36:40;99681.81;;;2.30;100.00
56912;BME280;42800;53.928;27.662;2023-05-09T01:39:10;99681.53;;;2.31;100.00
56912;BME280;42800;53.928;27.662;2023-05-09T01:41:38;99684.81;;;2.28;100.00
56912;BME280;42800;53.928;27.662;2023-05-09T01:44:07;99689.63;;;2.31;100.00
56912;BME280;42800;53.928;27.662;2023-05-09T01:46:35;99693.47;;;2.30;100.00
56912;BME280;42800;53.928;27.662;2023-05-09T01:49:02;99689.50;;;2.23;100.00
56912;BME280;42800;53.928;27.662;2023-05-09T01:51:28;99701.75;;;2.20;100.00
56912;BME280;42800;53.928;27.662;2023-05-09T01:53:56;99701.03;;;2.15;100.00
56912;BME280;42800;53.928;27.662;2023-05-09T01:56:24;99692.69;;;2.11;100.00
56912;BME280;42800;53.928;27.662;2023-05-09T01:58:51;99696.03;;;2.22;100.00
56912;BME280;42800;53.928;27.662;2023-05-09T02:01:18;99708.44;;;2.23;100.00
56912;BME280;42800;53.928;27.662;2023-05-09T02:03:47;99690.09;;;2.20;100.00
56912;BME280;42800;53.928;27.662;2023-05-09T02:06:16;99697.78;;;2.12;100.00
56912;BME280;42800;53.928;27.662;2023-05-09T02:08:43;99700.22;;;2.14;100.00
56912;BME280;42800;53.928;27.662;2023-05-09T02:11:09;99690.56;;;2.08;100.00
56912;BME280;42800;53.928;27.662;2023-05-09T02:13:35;99690.56;;;2.08;100.00
56912;BME280;42800;53.928;27.662;2023-05-09T02:16:03;99694.09;;;2.08;100.00
56912;BME280;42800;53.928;27.662;2023-05-09T02:18:29;99689.47;;;2.09;100.00
56912;BME280;42800;53.928;27.662;2023-05-09T02:20:57;99694.66;;;2.05;100.00
56912;BME280;42800;53.928;27.662;2023-05-09T02:23:23;99695.47;;;2.06;100.00
56912;BME280;42800;53.928;27.662;2023-05-09T02:25:49;99690.38;;;2.04;100.00
56912;BME280;42800;53.928;27.662;2023-05-09T02:28:17;99690.38;;;2.04;100.00
56912;BME280;42800;53.928;27.662;2023-05-09T02:30:44;99695.56;;;2.01;100.00
56912;BME280;42800;53.928;27.662;2023-05-09T02:33:12;99695.25;;;2.02;100.00
56912;BME280;42800;53.928;27.662;2023-05-09T02:35:41;99714.13;;;2.07;100.00
56912;BME280;42800;53.928;27.662;2023-05-09T02:38:09;99712.88;;;2.00;100.00
56912;BME280;42800;53.928;27.662;2023-05-09T02:40:36;99717.16;;;1.87;100.00
56912;BME280;42800;53.928;27.662;2023-05-09T02:43:02;99733.50;;;1.96;100.00
56912;BME280;42800;53.928;27.662;2023-05-09T02:45:28;99736.78;;;1.93;100.00
56912;BME280;42800;53.928;27.662;2023-05-09T02:47:54;99726.38;;;2.19;100.00
56912;BME280;42800;53.928;27.662;2023-05-09T02:50:20;99724.66;;;2.55;100.00
56912;BME280;42800;53.928;27.662;2023-05-09T02:52:46;99694.22;;;3.05;100.00
56912;BME280;42800;53.928;27.662;2023-05-09T02:55:13;99665.78;;;3.66;100.00
56912;BME280;42800;53.928;27.662;2023-05-09T02:57:38;99661.13;;;4.03;100.00
56912;BME280;42800;53.928;27.662;2023-05-09T03:00:05;99697.50;;;4.24;100.00
56912;BME280;42800;53.928;27.662;2023-05-09T03:02:33;99737.47;;;4.55;100.00
56912;BME280;42800;53.928;27.662;2023-05-09T03:04:59;99783.94;;;5.07;100.00
56912;BME280;42800;53.928;27.662;2023-05-09T03:07:25;99866.59;;;5.15;100.00
56912;BME280;42800;53.928;27.662;2023-05-09T03:09:51;99910.09;;;5.46;100.00
56912;BME280;42800;53.928;27.662;2023-05-09T03:12:18;99953.81;;;5.81;100.00
56912;BME280;42800;53.928;27.662;2023-05-09T03:14:44;99994.72;;;6.38;100.00
56912;BME280;42800;53.928;27.662;2023-05-09T03:17:10;100059.66;;;6.62;100.00
56912;BME280;42800;53.928;27.662;2023-05-09T03:19:35;100087.94;;;6.83;100.00
56912;BME280;42800;53.928;27.662;2023-05-09T03:22:01;100111.88;;;7.04;100.00
56912;BME280;42800;53.928;27.662;2023-05-09T03:24:27;100125.88;;;7.28;100.00
56912;BME280;42800;53.928;27.662;2023-05-09T03:26:53;100144.66;;;7.30;100.00
56912;BME280;42800;53.928;27.662;2023-05-09T03:29:20;100160.09;;;7.78;100.00
56912;BME280;42800;53.928;27.662;2023-05-09T03:31:46;100184.63;;;8.04;100.00
56912;BME280;42800;53.928;27.662;2023-05-09T03:34:12;100214.81;;;8.25;100.00
56912;BME280;42800;53.928;27.662;2023-05-09T03:36:40;100220.44;;;8.46;100.00
56912;BME280;42800;53.928;27.662;2023-05-09T03:39:06;100223.22;;;8.93;100.00
56912;BME280;42800;53.928;27.662;2023-05-09T03:41:32;100233.09;;;9.06;100.00
56912;BME280;42800;53.928;27.662;2023-05-09T03:44:00;100248.66;;;9.23;100.00
56912;BME280;42800;53.928;27.662;2023-05-09T03:46:26;100257.97;;;9.22;100.00
56912;BME280;42800;53.928;27.662;2023-05-09T03:48:52;100263.69;;;9.47;100.00
56912;BME280;42800;53.928;27.662;2023-05-09T03:51:18;100264.03;;;9.66;100.00
56912;BME280;42800;53.928;27.662;2023-05-09T03:53:45;100278.03;;;9.94;100.00
56912;BME280;42800;53.928;27.662;2023-05-09T03:56:11;100285.19;;;10.28;100.00
56912;BME280;42800;53.928;27.662;2023-05-09T03:58:37;100290.94;;;10.69;100.00
56912;BME280;42800;53.928;27.662;2023-05-09T04:01:03;100293.88;;;10.84;99.80
56912;BME280;42800;53.928;27.662;2023-05-09T04:03:30;100298.03;;;11.15;97.56
56912;BME280;42800;53.928;27.662;2023-05-09T04:05:56;100301.13;;;11.14;98.73
56912;BME280;42800;53.928;27.662;2023-05-09T04:08:22;100306.63;;;11.38;93.50
56912;BME280;42800;53.928;27.662;2023-05-09T04:10:48;100323.25;;;12.03;86.09
56912;BME280;42800;53.928;27.662;2023-05-09T04:13:14;100320.84;;;11.89;86.54
56912;BME280;42800;53.928;27.662;2023-05-09T04:15:40;100315.84;;;12.19;87.06
56912;BME280;42800;53.928;27.662;2023-05-09T04:18:07;100326.63;;;12.53;85.38
56912;BME280;42800;53.928;27.662;2023-05-09T04:20:33;100332.59;;;12.55;85.80
56912;BME280;42800;53.928;27.662;2023-05-09T04:22:59;100339.00;;;12.87;82.65
56912;BME280;42800;53.928;27.662;2023-05-09T04:25:25;100339.75;;;13.15;79.27
56912;BME280;42800;53.928;27.662;2023-05-09T04:27:51;100346.81;;;13.29;79.48
56912;BME280;42800;53.928;27.662;2023-05-09T04:30:17;100342.53;;;13.95;75.55
56912;BME280;42800;53.928;27.662;2023-05-09T04:32:43;100355.50;;;14.29;72.83
56912;BME280;42800;53.928;27.662;2023-05-09T04:35:10;100367.56;;;14.56;68.35
56912;BME280;42800;53.928;27.662;2023-05-09T04:37:36;100367.91;;;14.94;68.43
56912;BME280;42800;53.928;27.662;2023-05-09T04:40:03;100369.69;;;15.05;67.81
56912;BME280;42800;53.928;27.662;2023-05-09T04:42:30;100355.84;;;15.48;70.40
56912;BME280;42800;53.928;27.662;2023-05-09T04:44:58;100368.38;;;15.65;65.42
56912;BME280;42800;53.928;27.662;2023-05-09T04:47:24;100382.38;;;16.25;60.00
56912;BME280;42800;53.928;27.662;2023-05-09T04:49:49;100381.94;;;16.50;57.61
56912;BME280;42800;53.928;27.662;2023-05-09T04:52:16;100376.75;;;16.78;60.27
56912;BME280;42800;53.928;27.662;2023-05-09T04:54:42;100372.84;;;16.22;56.98
56912;BME280;42800;53.928;27.662;2023-05-09T04:57:08;100377.88;;;17.45;55.60
56912;BME280;42800;53.928;27.662;2023-05-09T04:59:34;100389.31;;;17.80;53.40
56912;BME280;42800;53.928;27.662;2023-05-09T05:02:00;100387.78;;;17.90;53.95
56912;BME280;42800;53.928;27.662;2023-05-09T05:04:27;100381.84;;;17.92;51.60
56912;BME280;42800;53.928;27.662;2023-05-09T05:06:53;100381.13;;;18.02;50.73
56912;BME280;42800;53.928;27.662;2023-05-09T05:09:19;100394.03;;;17.39;50.24
56912;BME280;42800;53.928;27.662;2023-05-09T05:11:46;100379.09;;;18.61;50.54
56912;BME280;42800;53.928;27.662;2023-05-09T05:14:12;100388.34;;;18.14;49.73
56912;BME280;42800;53.928;27.662;2023-05-09T05:16:38;100379.50;;;18.60;49.35
56912;BME280;42800;53.928;27.662;2023-05-09T05:19:03;100376.53;;;19.11;48.10
56912;BME280;42800;53.928;27.662;2023-05-09T05:21:29;100373.38;;;19.31;48.04
56912;BME280;42800;53.928;27.662;2023-05-09T05:23:55;100371.81;;;19.37;46.70
56912;BME280;42800;53.928;27.662;2023-05-09T05:26:21;100374.97;;;19.21;47.43
56912;BME280;42800;53.928;27.662;2023-05-09T05:28:48;100369.81;;;19.48;46.32
56912;BME280;42800;53.928;27.662;2023-05-09T05:31:19;100370.97;;;19.15;45.54
56912;BME280;42800;53.928;27.662;2023-05-09T05:33:45;100367.06;;;19.98;46.95
56912;BME280;42800;53.928;27.662;2023-05-09T05:36:11;100369.78;;;20.30;46.43
56912;BME280;42800;53.928;27.662;2023-05-09T05:38:37;100368.22;;;20.15;45.64
56912;BME280;42800;53.928;27.662;2023-05-09T05:41:03;100367.03;;;20.19;44.97
56912;BME280;42800;53.928;27.662;2023-05-09T05:43:29;100370.22;;;20.11;44.30
56912;BME280;42800;53.928;27.662;2023-05-09T05:45:55;100370.41;;;20.88;44.42
56912;BME280;42800;53.928;27.662;2023-05-09T05:48:21;100363.28;;;20.80;42.46
56912;BME280;42800;53.928;27.662;2023-05-09T05:50:47;100365.25;;;20.86;43.02
56912;BME280;42800;53.928;27.662;2023-05-09T05:53:13;100364.16;;;20.52;43.07
56912;BME280;42800;53.928;27.662;2023-05-09T05:55:39;100370.34;;;20.99;43.01
56912;BME280;42800;53.928;27.662;2023-05-09T05:58:05;100363.75;;;21.34;42.83
56912;BME280;42800;53.928;27.662;2023-05-09T06:00:31;100367.88;;;21.11;43.01
56912;BME280;42800;53.928;27.662;2023-05-09T06:02:58;100361.72;;;20.68;42.62
56912;BME280;42800;53.928;27.662;2023-05-09T06:05:23;100355.06;;;21.21;42.45
56912;BME280;42800;53.928;27.662;2023-05-09T06:07:49;100364.16;;;20.52;42.63
56912;BME280;42800;53.928;27.662;2023-05-09T06:10:15;100357.16;;;22.11;41.47
56912;BME280;42800;53.928;27.662;2023-05-09T06:12:41;100359.19;;;22.06;42.01
56912;BME280;42800;53.928;27.662;2023-05-09T06:15:07;100365.72;;;21.89;41.34
56912;BME280;42800;53.928;27.662;2023-05-09T06:17:33;100352.81;;;22.02;41.82
56912;BME280;42800;53.928;27.662;2023-05-09T06:20:00;100361.50;;;22.15;40.80
56912;BME280;42800;53.928;27.662;2023-05-09T06:22:26;100355.66;;;22.40;40.58
56912;BME280;42800;53.928;27.662;2023-05-09T06:24:52;100361.44;;;21.77;40.08
56912;BME280;42800;53.928;27.662;2023-05-09T06:27:18;100364.81;;;22.03;40.83
56912;BME280;42800;53.928;27.662;2023-05-09T06:29:44;100366.22;;;21.80;40.59
56912;BME280;42800;53.928;27.662;2023-05-09T06:32:10;100360.38;;;22.47;40.78
56912;BME280;42800;53.928;27.662;2023-05-09T06:34:36;100357.00;;;22.63;40.77
56912;BME280;42800;53.928;27.662;2023-05-09T06:37:02;100362.94;;;22.65;40.60
56912;BME280;42800;53.928;27.662;2023-05-09T06:39:28;100360.31;;;22.13;40.39
56912;BME280;42800;53.928;27.662;2023-05-09T06:41:54;100353.41;;;22.28;40.30
56912;BME280;42800;53.928;27.662;2023-05-09T06:44:20;100357.97;;;22.79;40.04
56912;BME280;42800;53.928;27.662;2023-05-09T06:46:46;100352.94;;;22.67;39.88
56912;BME280;42800;53.928;27.662;2023-05-09T06:49:12;100347.88;;;22.86;40.18
56912;BME280;42800;53.928;27.662;2023-05-09T06:51:38;100358.09;;;22.69;39.94
56912;BME280;42800;53.928;27.662;2023-05-09T06:54:05;100353.69;;;22.37;39.06
56912;BME280;42800;53.928;27.662;2023-05-09T06:56:31;100342.44;;;22.75;39.27
56912;BME280;42800;53.928;27.662;2023-05-09T06:58:56;100341.81;;;22.64;39.90
56912;BME280;42800;53.928;27.662;2023-05-09T07:01:22;100352.31;;;22.52;38.12
56912;BME280;42800;53.928;27.662;2023-05-09T07:03:48;100342.88;;;22.43;38.88
56912;BME280;42800;53.928;27.662;2023-05-09T07:06:14;100343.63;;;21.64;38.89
56912;BME280;42800;53.928;27.662;2023-05-09T07:08:40;100335.91;;;20.50;40.13
56912;BME280;42800;53.928;27.662;2023-05-09T07:11:07;100339.00;;;21.47;39.54
56912;BME280;42800;53.928;27.662;2023-05-09T07:13:33;100335.53;;;22.18;39.15
56912;BME280;42800;53.928;27.662;2023-05-09T07:15:59;100331.13;;;22.21;39.27
56912;BME280;42800;53.928;27.662;2023-05-09T07:18:24;100321.72;;;19.22;40.70
56912;BME280;42800;53.928;27.662;2023-05-09T07:20:50;100330.44;;;20.14;40.45
56912;BME280;42800;53.928;27.662;2023-05-09T07:23:16;100328.06;;;19.05;41.62
56912;BME280;42800;53.928;27.662;2023-05-09T07:25:42;100331.41;;;18.41;42.13
56912;BME280;42800;53.928;27.662;2023-05-09T07:28:10;100320.50;;;19.05;41.71
56912;BME280;42800;53.928;27.662;2023-05-09T07:30:37;100309.66;;;20.47;41.48
56912;BME280;42800;53.928;27.662;2023-05-09T07:33:03;100315.97;;;21.28;40.80
56912;BME280;42800;53.928;27.662;2023-05-09T07:35:29;100314.31;;;21.42;39.65
56912;BME280;42800;53.928;27.662;2023-05-09T07:37:54;100309.31;;;20.34;40.98
56912;BME280;42800;53.928;27.662;2023-05-09T07:40:20;100306.75;;;20.79;40.30
56912;BME280;42800;53.928;27.662;2023-05-09T07:42:46;100310.50;;;21.70;40.24
56912;BME280;42800;53.928;27.662;2023-05-09T07:45:14;100309.53;;;22.25;40.08
56912;BME280;42800;53.928;27.662;2023-05-09T07:47:40;100309.78;;;21.06;40.71
56912;BME280;42800;53.928;27.662;2023-05-09T07:50:07;100304.81;;;20.65;41.24
56912;BME280;42800;53.928;27.662;2023-05-09T07:52:33;100301.50;;;19.68;41.39
56912;BME280;42800;53.928;27.662;2023-05-09T07:54:59;100306.34;;;20.77;40.29
56912;BME280;42800;53.928;27.662;2023-05-09T07:57:25;100305.06;;;19.58;40.21
56912;BME280;42800;53.928;27.662;2023-05-09T07:59:51;100309.94;;;18.27;41.48
56912;BME280;42800;53.928;27.662;2023-05-09T08:02:18;100291.13;;;18.94;41.26
56912;BME280;42800;53.928;27.662;2023-05-09T08:04:44;100301.34;;;17.84;42.48
56912;BME280;42800;53.928;27.662;2023-05-09T08:07:13;100304.25;;;19.25;41.71
56912;BME280;42800;53.928;27.662;2023-05-09T08:09:39;100292.09;;;20.61;41.34
56912;BME280;42800;53.928;27.662;2023-05-09T08:12:05;100298.63;;;21.06;40.31
56912;BME280;42800;53.928;27.662;2023-05-09T08:14:31;100299.88;;;21.54;39.85
56912;BME280;42800;53.928;27.662;2023-05-09T08:16:57;100288.56;;;20.53;39.81
56912;BME280;42800;53.928;27.662;2023-05-09T08:19:23;100287.94;;;19.95;39.81
56912;BME280;42800;53.928;27.662;2023-05-09T08:21:50;100283.97;;;21.47;39.29
56912;BME280;42800;53.928;27.662;2023-05-09T08:24:16;100276.41;;;22.27;39.23
56912;BME280;42800;53.928;27.662;2023-05-09T08:26:42;100271.09;;;21.98;37.80
56912;BME280;42800;53.928;27.662;2023-05-09T08:29:09;100275.31;;;22.14;37.98
56912;BME280;42800;53.928;27.662;2023-05-09T08:31:35;100267.09;;;22.95;37.96
56912;BME280;42800;53.928;27.662;2023-05-09T08:34:01;100266.44;;;21.88;38.87
56912;BME280;42800;53.928;27.662;2023-05-09T08:36:28;100269.41;;;21.22;40.04
56912;BME280;42800;53.928;27.662;2023-05-09T08:38:54;100268.47;;;20.03;39.95
56912;BME280;42800;53.928;27.662;2023-05-09T08:41:24;100262.44;;;18.61;40.67
56912;BME280;42800;53.928;27.662;2023-05-09T08:43:51;100263.34;;;19.72;39.50
56912;BME280;42800;53.928;27.662;2023-05-09T08:46:24;100261.16;;;21.07;39.88
56912;BME280;42800;53.928;27.662;2023-05-09T08:48:52;100252.38;;;20.39;39.75
56912;BME280;42800;53.928;27.662;2023-05-09T08:51:19;100247.47;;;19.69;40.31
56912;BME280;42800;53.928;27.662;2023-05-09T08:53:46;100251.50;;;22.02;39.04
56912;BME280;42800;53.928;27.662;2023-05-09T08:56:12;100251.75;;;21.39;38.94
56912;BME280;42800;53.928;27.662;2023-05-09T08:58:39;100255.88;;;20.61;38.94
56912;BME280;42800;53.928;27.662;2023-05-09T09:01:05;100247.72;;;20.14;39.46
56912;BME280;42800;53.928;27.662;2023-05-09T09:03:32;100239.69;;;20.31;39.72
56912;BME280;42800;53.928;27.662;2023-05-09T09:05:58;100239.00;;;22.17;38.93
56912;BME280;42800;53.928;27.662;2023-05-09T09:08:26;100230.69;;;22.71;38.61
56912;BME280;42800;53.928;27.662;2023-05-09T09:10:53;100246.38;;;21.63;38.43
56912;BME280;42800;53.928;27.662;2023-05-09T09:13:19;100240.81;;;22.31;38.24
56912;BME280;42800;53.928;27.662;2023-05-09T09:15:47;100233.34;;;23.09;38.58
56912;BME280;42800;53.928;27.662;2023-05-09T09:18:19;100232.53;;;22.82;38.53
56912;BME280;42800;53.928;27.662;2023-05-09T09:20:48;100234.72;;;21.26;38.95
56912;BME280;42800;53.928;27.662;2023-05-09T09:23:18;100231.75;;;21.85;38.23
56912;BME280;42800;53.928;27.662;2023-05-09T09:25:44;100224.53;;;21.05;38.49
56912;BME280;42800;53.928;27.662;2023-05-09T09:28:11;100218.16;;;22.52;38.92
56912;BME280;42800;53.928;27.662;2023-05-09T09:30:42;100220.66;;;22.74;38.03
56912;BME280;42800;53.928;27.662;2023-05-09T09:33:08;100220.25;;;20.24;38.90
56912;BME280;42800;53.928;27.662;2023-05-09T09:35:37;100212.91;;;21.97;38.72
56912;BME280;42800;53.928;27.662;2023-05-09T09:38:05;100212.94;;;21.55;38.41
56912;BME280;42800;53.928;27.662;2023-05-09T09:40:31;100221.28;;;22.31;38.31
56912;BME280;42800;53.928;27.662;2023-05-09T09:42:57;100216.25;;;22.76;37.42
56912;BME280;42800;53.928;27.662;2023-05-09T09:45:23;100213.56;;;22.69;38.04
56912;BME280;42800;53.928;27.662;2023-05-09T09:47:49;100214.91;;;21.96;38.09
56912;BME280;42800;53.928;27.662;2023-05-09T09:50:17;100211.03;;;22.21;38.09
56912;BME280;42800;53.928;27.662;2023-05-09T09:52:48;100203.91;;;22.16;38.61
56912;BME280;42800;53.928;27.662;2023-05-09T09:55:14;100203.75;;;22.58;38.68
56912;BME280;42800;53.928;27.662;2023-05-09T09:57:40;100204.22;;;21.88;38.52
56912;BME280;42800;53.928;27.662;2023-05-09T10:00:10;100207.94;;;21.32;38.63
56912;BME280;42800;53.928;27.662;2023-05-09T10:02:46;100203.47;;;21.49;39.26
56912;BME280;42800;53.928;27.662;2023-05-09T10:05:18;100201.41;;;21.08;39.16
56912;BME280;42800;53.928;27.662;2023-05-09T10:07:44;100201.69;;;22.00;39.44
56912;BME280;42800;53.928;27.662;2023-05-09T10:10:10;100197.13;;;20.34;39.59
56912;BME280;42800;53.928;27.662;2023-05-09T10:12:36;100197.38;;;21.58;39.66
56912;BME280;42800;53.928;27.662;2023-05-09T10:15:03;100187.50;;;20.42;39.93
56912;BME280;42800;53.928;27.662;2023-05-09T10:17:32;100186.13;;;20.75;38.96
56912;BME280;42800;53.928;27.662;2023-05-09T10:20:01;100180.44;;;20.30;40.35
56912;BME280;42800;53.928;27.662;2023-05-09T10:22:30;100176.44;;;20.31;40.33
56912;BME280;42800;53.928;27.662;2023-05-09T10:25:01;100178.63;;;20.68;39.60
56912;BME280;42800;53.928;27.662;2023-05-09T10:27:30;100178.56;;;20.76;39.76
56912;BME280;42800;53.928;27.662;2023-05-09T10:30:01;100181.69;;;21.71;39.71
56912;BME280;42800;53.928;27.662;2023-05-09T10:32:31;100179.03;;;21.60;38.42
56912;BME280;42800;53.928;27.662;2023-05-09T10:35:05;100170.31;;;21.89;38.39
56912;BME280;42800;53.928;27.662;2023-05-09T10:37:32;100178.75;;;22.47;39.18
56912;BME280;42800;53.928;27.662;2023-05-09T10:40:00;100163.94;;;21.89;38.97
56912;BME280;42800;53.928;27.662;2023-05-09T10:42:28;100163.88;;;20.72;39.34
56912;BME280;42800;53.928;27.662;2023-05-09T10:44:55;100160.47;;;20.98;39.61
56912;BME280;42800;53.928;27.662;2023-05-09T10:47:22;100166.56;;;20.86;39.21
56912;BME280;42800;53.928;27.662;2023-05-09T10:49:48;100159.25;;;19.63;40.05
56912;BME280;42800;53.928;27.662;2023-05-09T10:52:15;100146.25;;;18.92;41.09
56912;BME280;42800;53.928;27.662;2023-05-09T10:54:41;100142.28;;;18.82;41.89
56912;BME280;42800;53.928;27.662;2023-05-09T10:57:08;100148.22;;;17.50;41.83
56912;BME280;42800;53.928;27.662;2023-05-09T10:59:36;100136.63;;;18.28;42.23
56912;BME280;42800;53.928;27.662;2023-05-09T11:02:02;100148.50;;;18.15;42.47
56912;BME280;42800;53.928;27.662;2023-05-09T11:04:29;100143.41;;;18.52;41.43
56912;BME280;42800;53.928;27.662;2023-05-09T11:06:58;100134.13;;;17.80;42.60
56912;BME280;42800;53.928;27.662;2023-05-09T11:09:29;100139.84;;;18.41;41.97
56912;BME280;42800;53.928;27.662;2023-05-09T11:11:59;100128.16;;;17.09;41.62
56912;BME280;42800;53.928;27.662;2023-05-09T11:14:36;100132.00;;;16.90;42.32
56912;BME280;42800;53.928;27.662;2023-05-09T11:20:27;100119.75;;;17.60;42.22
56912;BME280;42800;53.928;27.662;2023-05-09T11:22:56;100113.00;;;17.61;41.68
56912;BME280;42800;53.928;27.662;2023-05-09T11:25:25;100125.84;;;16.66;42.02
56912;BME280;42800;53.928;27.662;2023-05-09T11:27:58;100118.63;;;17.03;41.68
56912;BME280;42800;53.928;27.662;2023-05-09T11:30:35;100106.66;;;16.88;41.98
56912;BME280;42800;53.928;27.662;2023-05-09T11:33:03;100099.66;;;16.16;42.47
56912;BME280;42800;53.928;27.662;2023-05-09T11:35:31;100104.31;;;16.49;43.23
56912;BME280;42800;53.928;27.662;2023-05-09T11:38:00;100107.72;;;16.32;42.28
56912;BME280;42800;53.928;27.662;2023-05-09T11:40:27;100092.16;;;16.16;42.40
56912;BME280;42800;53.928;27.662;2023-05-09T11:42:55;100099.00;;;15.92;43.63
56912;BME280;42800;53.928;27.662;2023-05-09T11:45:22;100084.19;;;16.11;43.32
56912;BME280;42800;53.928;27.662;2023-05-09T11:47:50;100091.03;;;15.84;42.62
56912;BME280;42800;53.928;27.662;2023-05-09T11:50:17;100091.94;;;16.36;43.53
56912;BME280;42800;53.928;27.662;2023-05-09T11:52:44;100084.13;;;16.89;42.15
56912;BME280;42800;53.928;27.662;2023-05-09T11:55:13;100079.44;;;17.01;42.76
56912;BME280;42800;53.928;27.662;2023-05-09T11:57:41;100079.13;;;16.61;42.31
56912;BME280;42800;53.928;27.662;2023-05-09T12:00:09;100066.56;;;16.27;42.84
56912;BME280;42800;53.928;27.662;2023-05-09T12:02:36;100070.31;;;15.67;42.83
56912;BME280;42800;53.928;27.662;2023-05-09T12:05:06;100076.13;;;15.62;43.67
56912;BME280;42800;53.928;27.662;2023-05-09T12:07:34;100064.13;;;15.17;43.84
56912;BME280;42800;53.928;27.662;2023-05-09T12:10:00;100062.56;;;15.80;44.13
56912;BME280;42800;53.928;27.662;2023-05-09T12:12:32;100057.66;;;16.03;44.28
56912;BME280;42800;53.928;27.662;2023-05-09T12:15:02;100049.09;;;16.19;43.09
56912;BME280;42800;53.928;27.662;2023-05-09T12:17:29;100046.22;;;16.53;42.77
56912;BME280;42800;53.928;27.662;2023-05-09T12:19:57;100046.06;;;16.31;43.75
56912;BME280;42800;53.928;27.662;2023-05-09T12:22:24;100040.78;;;16.19;43.00
56912;BME280;42800;53.928;27.662;2023-05-09T12:24:50;100042.78;;;16.18;43.38
56912;BME280;42800;53.928;27.662;2023-05-09T12:27:16;100037.72;;;16.28;42.92
56912;BME280;42800;53.928;27.662;2023-05-09T12:29:43;100034.34;;;16.52;43.00
56912;BME280;42800;53.928;27.662;2023-05-09T12:32:11;100031.38;;;16.23;43.00
56912;BME280;42800;53.928;27.662;2023-05-09T12:34:37;100022.50;;;16.52;41.63
56912;BME280;42800;53.928;27.662;2023-05-09T12:37:13;100027.63;;;16.05;42.07
56912;BME280;42800;53.928;27.662;2023-05-09T12:39:39;100023.56;;;16.36;41.76
56912;BME280;42800;53.928;27.662;2023-05-09T12:42:11;100024.63;;;16.21;42.16
56912;BME280;42800;53.928;27.662;2023-05-09T12:44:36;100027.16;;;15.96;42.29
56912;BME280;42800;53.928;27.662;2023-05-09T12:47:03;100020.66;;;15.44;42.38